الصفحة الرئيسية
METAR-TAF:

METAR-TAF

مطار :

Hambantota, سريلانكا

دائرة عرض: 06-17-20N, خط طول: 81-07-25E, ارتفاع: 48 متر

مراقبة الطقس الحالي

تاريخ ووقت الإصدار 48 دقيقة قبل الساعة 09:10UTC
ريح 5 عقدة من الجنوب/الجنوب الشرقي, الاتجاه يتراوح بين الشرق و الجنوب/الجنوب الغربي
درجة الحرارة 30°درجة مئوية
الرطوبة 79%
ضغط 1007 hPa
الرؤية 10 كم أو أكثر
غيوم قليلة على ارتفاع 1800 قدم

METAR: VCRI 260910Z 15005KT 090V200 9999 FEW018 30/26 Q1007 NOSIG

زمن: 15:28 (09:58 UTC)

توقعات

تاريخ ووقت الإصدار 4ساعات و 58 دقيقة قبل الساعة 05:00UTC
التوقعات صالحة من26 الساعة 06 UTC إلى 27 الساعة 12 UTC
ريح 5 عقدةمن اتجاهات متغيرة
الرؤية 10 كم أو أكثر
غيوم قليلة على ارتفاع 1800 قدم

TAF: VCRI 260500Z 2606/2712 VRB05KT 9999 FEW018 TX31/2607Z TN23/2700Z

أرصاد الطقس والتوقعات من أكثر من 4000 مطار (تقارير الطقس للمطار METAR والتنبؤ بالطقس بالمطارTAF).

المحطات المتاحة هي النقط الصفراء والحمراء على الخريطة.

حرك المؤشر فوق النقطة لمعرفة اسم المحطة.

ثم انقر لمعرفة أرصاد وتوقعات الطقس.

لتغيير الخارطة: اضغط على الأزرار الخضراء مع رمز الصليب الأسود للتكبير. على الزر الأخضر مع شرطة للتصغير، أو على الأسهم الخضراء للخرائط المجاورة.


METAR-TAF: